Terminal Aerodrome Forecast
Issued by NWS Wilmington, OH

Current Version | Previous Version | Graphics & Text | Print | Product List | Glossary On
Versions: 1 2 3 4 5 6 7 8 9 10 11 12 13 14 15 16 17 18 19 20 21 22 23 24
000
FTUS41 KILN 050100 AAA
TAFDAY
TAF AMD
KDAY 050101Z 0501/0524 33015KT 4SM -SN FEW022 SCT027 OVC030
      TEMPO 0501/0504 2SM -SN BR SCT007 OVC023
     FM050400 34011KT P6SM SCT015 OVC030
     FM051200 34010KT P6SM BKN025=

USA.gov is the U.S. government's official web portal to all federal, state and local government web resources and services.